sensor_id;sensor_type;location;lat;lon;timestamp;noise_LAeq;noise_LA_min;noise_LA_max;noise_LA01;noise_LA95
66888;Laerm;67239;51.680;5.976;2023-02-21T00:01:42;37.05;34.01;47.52;;
66888;Laerm;67239;51.680;5.976;2023-02-21T00:04:29;53.34;34.79;70.86;;
66888;Laerm;67239;51.680;5.976;2023-02-21T00:07:15;55.42;34.47;76.33;;
66888;Laerm;67239;51.680;5.976;2023-02-21T00:10:00;58.78;33.90;77.54;;
66888;Laerm;67239;51.680;5.976;2023-02-21T00:12:46;57.06;34.08;78.09;;
66888;Laerm;67239;51.680;5.976;2023-02-21T00:15:32;57.93;34.22;78.78;;
66888;Laerm;67239;51.680;5.976;2023-02-21T00:18:18;61.58;35.26;78.97;;
66888;Laerm;67239;51.680;5.976;2023-02-21T00:21:04;59.76;34.30;80.02;;
66888;Laerm;67239;51.680;5.976;2023-02-21T00:23:49;36.94;33.94;42.93;;
66888;Laerm;67239;51.680;5.976;2023-02-21T00:26:35;56.29;34.06;76.24;;
66888;Laerm;67239;51.680;5.976;2023-02-21T00:29:21;56.46;34.36;74.83;;
66888;Laerm;67239;51.680;5.976;2023-02-21T00:32:07;37.19;33.93;45.51;;
66888;Laerm;67239;51.680;5.976;2023-02-21T00:34:53;54.01;34.10;73.15;;
66888;Laerm;67239;51.680;5.976;2023-02-21T00:37:39;61.46;34.45;80.95;;
66888;Laerm;67239;51.680;5.976;2023-02-21T00:40:24;36.65;33.89;42.18;;
66888;Laerm;67239;51.680;5.976;2023-02-21T00:43:10;54.50;33.01;73.83;;
66888;Laerm;67239;51.680;5.976;2023-02-21T00:45:56;56.66;33.72;73.98;;
66888;Laerm;67239;51.680;5.976;2023-02-21T00:48:42;58.14;34.37;75.26;;
66888;Laerm;67239;51.680;5.976;2023-02-21T00:51:27;39.23;33.73;59.63;;
66888;Laerm;67239;51.680;5.976;2023-02-21T00:54:13;37.22;34.13;45.83;;
66888;Laerm;67239;51.680;5.976;2023-02-21T00:56:59;37.45;33.60;48.29;;
66888;Laerm;67239;51.680;5.976;2023-02-21T00:59:44;37.13;33.96;47.79;;
66888;Laerm;67239;51.680;5.976;2023-02-21T01:02:30;37.21;34.34;43.71;;
66888;Laerm;67239;51.680;5.976;2023-02-21T01:05:15;62.16;34.12;80.65;;
66888;Laerm;67239;51.680;5.976;2023-02-21T01:08:02;58.33;33.53;77.13;;
66888;Laerm;67239;51.680;5.976;2023-02-21T01:10:47;36.09;33.30;42.02;;
66888;Laerm;67239;51.680;5.976;2023-02-21T01:13:32;37.51;33.76;43.25;;
66888;Laerm;67239;51.680;5.976;2023-02-21T01:16:18;55.20;34.32;74.65;;
66888;Laerm;67239;51.680;5.976;2023-02-21T01:19:05;43.36;33.93;66.34;;
66888;Laerm;67239;51.680;5.976;2023-02-21T01:21:50;37.32;33.45;49.06;;
66888;Laerm;67239;51.680;5.976;2023-02-21T01:24:36;58.48;34.04;77.99;;
66888;Laerm;67239;51.680;5.976;2023-02-21T01:27:21;62.60;33.18;83.16;;
66888;Laerm;67239;51.680;5.976;2023-02-21T01:30:08;37.09;33.65;42.05;;
66888;Laerm;67239;51.680;5.976;2023-02-21T01:32:53;51.71;33.77;68.75;;
66888;Laerm;67239;51.680;5.976;2023-02-21T01:35:41;53.46;33.98;70.65;;
66888;Laerm;67239;51.680;5.976;2023-02-21T01:38:26;37.07;32.86;44.71;;
66888;Laerm;67239;51.680;5.976;2023-02-21T01:41:12;53.22;33.84;70.47;;
66888;Laerm;67239;51.680;5.976;2023-02-21T01:44:06;35.83;32.51;45.25;;
66888;Laerm;67239;51.680;5.976;2023-02-21T01:46:52;35.76;33.25;40.12;;
66888;Laerm;67239;51.680;5.976;2023-02-21T01:49:40;37.82;33.25;58.03;;
66888;Laerm;67239;51.680;5.976;2023-02-21T01:52:25;45.55;33.20;72.87;;
66888;Laerm;67239;51.680;5.976;2023-02-21T01:55:11;48.15;33.91;62.56;;
66888;Laerm;67239;51.680;5.976;2023-02-21T01:57:57;37.66;33.39;46.63;;
66888;Laerm;67239;51.680;5.976;2023-02-21T02:00:43;37.35;33.38;48.43;;
66888;Laerm;67239;51.680;5.976;2023-02-21T02:03:38;36.98;34.17;43.18;;
66888;Laerm;67239;51.680;5.976;2023-02-21T02:06:25;37.20;33.70;40.32;;
66888;Laerm;67239;51.680;5.976;2023-02-21T02:09:20;36.63;33.00;46.31;;
66888;Laerm;67239;51.680;5.976;2023-02-21T02:16:04;39.09;33.61;57.15;;
66888;Laerm;67239;51.680;5.976;2023-02-21T02:29:07;41.87;33.44;59.59;;
66888;Laerm;67239;51.680;5.976;2023-02-21T02:37:54;63.30;33.51;83.19;;
66888;Laerm;67239;51.680;5.976;2023-02-21T02:43:24;43.01;33.61;68.00;;
66888;Laerm;67239;51.680;5.976;2023-02-21T02:49:19;36.93;32.72;49.62;;
66888;Laerm;67239;51.680;5.976;2023-02-21T02:51:49;38.67;32.95;64.06;;
66888;Laerm;67239;51.680;5.976;2023-02-21T02:54:20;35.37;32.71;43.31;;
66888;Laerm;67239;51.680;5.976;2023-02-21T02:56:48;35.39;33.02;45.32;;
66888;Laerm;67239;51.680;5.976;2023-02-21T02:59:24;35.98;33.62;42.05;;
66888;Laerm;67239;51.680;5.976;2023-02-21T03:02:26;37.70;33.76;50.75;;
66888;Laerm;67239;51.680;5.976;2023-02-21T03:05:30;51.55;32.87;74.34;;
66888;Laerm;67239;51.680;5.976;2023-02-21T03:11:16;61.87;33.87;81.77;;
66888;Laerm;67239;51.680;5.976;2023-02-21T03:16:33;38.78;34.26;50.89;;
66888;Laerm;67239;51.680;5.976;2023-02-21T03:19:09;69.10;34.53;91.41;;
66888;Laerm;67239;51.680;5.976;2023-02-21T03:21:45;37.00;33.34;45.48;;
66888;Laerm;67239;51.680;5.976;2023-02-21T03:24:17;37.23;34.12;43.13;;
66888;Laerm;67239;51.680;5.976;2023-02-21T03:26:52;38.27;34.53;47.98;;
66888;Laerm;67239;51.680;5.976;2023-02-21T03:29:48;38.76;33.88;53.49;;
66888;Laerm;67239;51.680;5.976;2023-02-21T03:32:25;36.33;33.17;41.06;;
66888;Laerm;67239;51.680;5.976;2023-02-21T03:34:54;37.04;33.50;49.62;;
66888;Laerm;67239;51.680;5.976;2023-02-21T03:37:43;37.69;33.89;53.08;;
66888;Laerm;67239;51.680;5.976;2023-02-21T03:42:47;38.40;35.17;44.96;;
66888;Laerm;67239;51.680;5.976;2023-02-21T03:45:16;39.09;35.86;45.14;;
66888;Laerm;67239;51.680;5.976;2023-02-21T03:47:52;64.66;37.00;80.02;;
66888;Laerm;67239;51.680;5.976;2023-02-21T03:50:19;38.13;34.53;48.33;;
66888;Laerm;67239;51.680;5.976;2023-02-21T03:52:46;37.59;34.15;47.26;;
66888;Laerm;67239;51.680;5.976;2023-02-21T03:55:14;64.36;34.58;85.73;;
66888;Laerm;67239;51.680;5.976;2023-02-21T03:57:41;56.20;33.72;73.34;;
66888;Laerm;67239;51.680;5.976;2023-02-21T04:00:09;38.74;33.88;47.07;;
66888;Laerm;67239;51.680;5.976;2023-02-21T04:02:43;40.36;34.62;50.64;;
66888;Laerm;67239;51.680;5.976;2023-02-21T04:05:20;62.26;37.57;81.50;;
66888;Laerm;67239;51.680;5.976;2023-02-21T04:07:47;41.12;36.72;54.53;;
66888;Laerm;67239;51.680;5.976;2023-02-21T04:10:15;61.77;37.07;79.59;;
66888;Laerm;67239;51.680;5.976;2023-02-21T04:12:44;57.36;38.18;77.10;;
66888;Laerm;67239;51.680;5.976;2023-02-21T04:15:11;63.89;35.56;79.45;;
66888;Laerm;67239;51.680;5.976;2023-02-21T04:17:39;61.42;36.01;76.59;;
66888;Laerm;67239;51.680;5.976;2023-02-21T04:20:08;60.81;35.95;77.64;;
66888;Laerm;67239;51.680;5.976;2023-02-21T04:22:41;53.24;36.10;69.38;;
66888;Laerm;67239;51.680;5.976;2023-02-21T04:25:14;59.92;35.12;76.10;;
66888;Laerm;67239;51.680;5.976;2023-02-21T04:27:48;63.17;35.26;82.42;;
66888;Laerm;67239;51.680;5.976;2023-02-21T04:30:15;62.32;38.29;77.92;;
66888;Laerm;67239;51.680;5.976;2023-02-21T04:32:43;56.49;38.13;73.51;;
66888;Laerm;67239;51.680;5.976;2023-02-21T04:35:13;59.97;37.29;73.84;;
66888;Laerm;67239;51.680;5.976;2023-02-21T04:37:42;57.62;37.01;72.98;;
66888;Laerm;67239;51.680;5.976;2023-02-21T04:40:12;64.45;38.20;79.31;;
66888;Laerm;67239;51.680;5.976;2023-02-21T04:42:39;64.01;40.28;78.77;;
66888;Laerm;67239;51.680;5.976;2023-02-21T04:45:07;46.71;38.23;62.02;;
66888;Laerm;67239;51.680;5.976;2023-02-21T04:47:35;64.85;37.89;78.51;;
66888;Laerm;67239;51.680;5.976;2023-02-21T04:50:03;65.30;37.60;81.80;;
66888;Laerm;67239;51.680;5.976;2023-02-21T04:52:31;65.32;38.07;81.90;;
66888;Laerm;67239;51.680;5.976;2023-02-21T04:54:58;58.31;36.71;78.35;;
66888;Laerm;67239;51.680;5.976;2023-02-21T04:57:25;62.23;39.14;77.51;;
66888;Laerm;67239;51.680;5.976;2023-02-21T04:59:59;67.14;40.45;83.76;;
66888;Laerm;67239;51.680;5.976;2023-02-21T05:02:27;62.35;40.76;75.88;;
66888;Laerm;67239;51.680;5.976;2023-02-21T05:04:54;69.36;39.55;83.34;;
66888;Laerm;67239;51.680;5.976;2023-02-21T05:07:21;69.96;43.53;84.49;;
66888;Laerm;67239;51.680;5.976;2023-02-21T05:09:48;68.12;42.09;83.61;;
66888;Laerm;67239;51.680;5.976;2023-02-21T05:12:15;64.70;39.18;79.46;;
66888;Laerm;67239;51.680;5.976;2023-02-21T05:14:42;61.39;38.80;75.55;;
66888;Laerm;67239;51.680;5.976;2023-02-21T05:17:09;64.41;38.39;82.33;;
66888;Laerm;67239;51.680;5.976;2023-02-21T05:19:36;62.76;36.79;81.97;;
66888;Laerm;67239;51.680;5.976;2023-02-21T05:22:03;59.50;39.01;74.73;;
66888;Laerm;67239;51.680;5.976;2023-02-21T05:24:33;65.56;37.84;84.36;;
66888;Laerm;67239;51.680;5.976;2023-02-21T05:27:01;66.27;38.08;81.42;;
66888;Laerm;67239;51.680;5.976;2023-02-21T05:29:28;62.67;39.97;78.45;;
66888;Laerm;67239;51.680;5.976;2023-02-21T05:31:55;65.22;40.05;78.95;;
66888;Laerm;67239;51.680;5.976;2023-02-21T05:34:22;59.94;39.81;75.25;;
66888;Laerm;67239;51.680;5.976;2023-02-21T05:36:49;67.72;40.72;82.56;;
66888;Laerm;67239;51.680;5.976;2023-02-21T05:39:16;60.32;41.98;76.24;;
66888;Laerm;67239;51.680;5.976;2023-02-21T05:41:49;66.28;42.43;78.87;;
66888;Laerm;67239;51.680;5.976;2023-02-21T05:44:17;62.12;40.98;75.80;;
66888;Laerm;67239;51.680;5.976;2023-02-21T05:46:44;65.42;43.36;78.59;;
66888;Laerm;67239;51.680;5.976;2023-02-21T05:49:12;65.11;45.03;76.88;;
66888;Laerm;67239;51.680;5.976;2023-02-21T05:51:42;59.56;41.62;76.72;;
66888;Laerm;67239;51.680;5.976;2023-02-21T05:54:16;65.85;41.03;81.14;;
66888;Laerm;67239;51.680;5.976;2023-02-21T05:56:46;69.87;40.61;82.02;;
66888;Laerm;67239;51.680;5.976;2023-02-21T05:59:15;64.86;41.48;80.52;;
66888;Laerm;67239;51.680;5.976;2023-02-21T06:01:43;65.93;40.79;83.21;;
66888;Laerm;67239;51.680;5.976;2023-02-21T06:04:10;62.46;41.12;78.87;;
66888;Laerm;67239;51.680;5.976;2023-02-21T06:06:37;66.94;43.21;79.18;;
66888;Laerm;67239;51.680;5.976;2023-02-21T06:09:05;68.22;42.58;82.61;;
66888;Laerm;67239;51.680;5.976;2023-02-21T06:11:35;65.70;41.17;81.97;;
66888;Laerm;67239;51.680;5.976;2023-02-21T06:14:07;66.96;43.00;81.64;;
66888;Laerm;67239;51.680;5.976;2023-02-21T06:16:37;65.78;44.29;82.83;;
66888;Laerm;67239;51.680;5.976;2023-02-21T06:19:06;66.01;41.99;79.53;;
66888;Laerm;67239;51.680;5.976;2023-02-21T06:21:34;68.72;48.17;81.57;;
66888;Laerm;67239;51.680;5.976;2023-02-21T06:24:03;65.42;39.85;79.17;;
66888;Laerm;67239;51.680;5.976;2023-02-21T06:26:30;67.95;40.60;81.23;;
66888;Laerm;67239;51.680;5.976;2023-02-21T06:28:57;63.06;43.01;77.03;;
66888;Laerm;67239;51.680;5.976;2023-02-21T06:31:24;63.74;40.64;81.06;;
66888;Laerm;67239;51.680;5.976;2023-02-21T06:33:52;65.18;41.94;78.62;;
66888;Laerm;67239;51.680;5.976;2023-02-21T06:36:24;62.14;41.65;76.20;;
66888;Laerm;67239;51.680;5.976;2023-02-21T06:38:54;65.30;41.97;78.96;;
66888;Laerm;67239;51.680;5.976;2023-02-21T06:41:26;62.05;39.97;73.69;;
66888;Laerm;67239;51.680;5.976;2023-02-21T06:43:55;66.94;43.68;80.48;;
66888;Laerm;67239;51.680;5.976;2023-02-21T06:46:27;67.76;44.49;80.28;;
66888;Laerm;67239;51.680;5.976;2023-02-21T06:48:54;67.32;43.44;80.39;;
66888;Laerm;67239;51.680;5.976;2023-02-21T06:51:21;64.15;43.47;76.74;;
66888;Laerm;67239;51.680;5.976;2023-02-21T06:53:56;66.84;46.65;80.97;;
66888;Laerm;67239;51.680;5.976;2023-02-21T06:56:23;70.30;52.93;83.06;;
66888;Laerm;67239;51.680;5.976;2023-02-21T06:58:51;65.42;41.88;81.16;;
66888;Laerm;67239;51.680;5.976;2023-02-21T07:01:18;67.54;41.47;83.80;;
66888;Laerm;67239;51.680;5.976;2023-02-21T07:03:46;67.81;42.67;80.34;;
66888;Laerm;67239;51.680;5.976;2023-02-21T07:06:14;66.42;42.92;80.57;;
66888;Laerm;67239;51.680;5.976;2023-02-21T07:08:41;67.12;43.20;81.34;;
66888;Laerm;67239;51.680;5.976;2023-02-21T07:11:08;65.87;43.26;79.45;;
66888;Laerm;67239;51.680;5.976;2023-02-21T07:13:36;67.19;43.75;81.63;;
66888;Laerm;67239;51.680;5.976;2023-02-21T07:16:06;66.04;44.08;82.29;;
66888;Laerm;67239;51.680;5.976;2023-02-21T07:18:33;62.90;43.04;75.96;;
66888;Laerm;67239;51.680;5.976;2023-02-21T07:21:00;62.38;44.98;79.78;;
66888;Laerm;67239;51.680;5.976;2023-02-21T07:23:27;65.09;42.21;79.51;;
66888;Laerm;67239;51.680;5.976;2023-02-21T07:25:54;66.79;43.40;80.55;;
66888;Laerm;67239;51.680;5.976;2023-02-21T07:28:21;66.56;42.57;83.44;;
66888;Laerm;67239;51.680;5.976;2023-02-21T07:30:48;67.95;44.73;79.82;;
66888;Laerm;67239;51.680;5.976;2023-02-21T07:33:15;65.94;43.20;81.56;;
66888;Laerm;67239;51.680;5.976;2023-02-21T07:35:43;63.92;42.26;80.00;;
66888;Laerm;67239;51.680;5.976;2023-02-21T07:38:10;66.56;43.30;80.08;;
66888;Laerm;67239;51.680;5.976;2023-02-21T07:40:37;64.59;41.89;79.25;;
66888;Laerm;67239;51.680;5.976;2023-02-21T07:43:04;62.30;41.46;75.92;;
66888;Laerm;67239;51.680;5.976;2023-02-21T07:45:32;68.35;41.74;85.78;;
66888;Laerm;67239;51.680;5.976;2023-02-21T07:47:58;64.06;40.54;79.90;;
66888;Laerm;67239;51.680;5.976;2023-02-21T07:50:25;63.60;41.48;79.14;;
66888;Laerm;67239;51.680;5.976;2023-02-21T07:52:52;69.28;41.12;81.64;;
66888;Laerm;67239;51.680;5.976;2023-02-21T07:55:19;67.59;40.41;82.70;;
66888;Laerm;67239;51.680;5.976;2023-02-21T07:57:47;67.55;40.41;82.75;;
66888;Laerm;67239;51.680;5.976;2023-02-21T08:00:14;62.22;41.90;79.08;;
66888;Laerm;67239;51.680;5.976;2023-02-21T08:02:47;65.83;41.10;82.10;;
66888;Laerm;67239;51.680;5.976;2023-02-21T08:05:19;61.15;41.95;78.34;;
66888;Laerm;67239;51.680;5.976;2023-02-21T08:07:47;66.14;42.23;81.51;;
66888;Laerm;67239;51.680;5.976;2023-02-21T08:10:25;64.73;43.14;79.87;;
66888;Laerm;67239;51.680;5.976;2023-02-21T08:12:52;67.37;42.66;83.53;;
66888;Laerm;67239;51.680;5.976;2023-02-21T08:15:19;67.21;45.54;79.15;;
66888;Laerm;67239;51.680;5.976;2023-02-21T08:17:47;67.40;45.05;80.63;;
66888;Laerm;67239;51.680;5.976;2023-02-21T08:20:16;63.99;41.09;79.16;;
66888;Laerm;67239;51.680;5.976;2023-02-21T08:22:43;68.96;44.22;84.79;;
66888;Laerm;67239;51.680;5.976;2023-02-21T08:25:13;67.31;42.13;84.22;;
66888;Laerm;67239;51.680;5.976;2023-02-21T08:27:42;66.27;42.98;79.68;;
66888;Laerm;67239;51.680;5.976;2023-02-21T08:30:15;66.63;43.25;79.59;;
66888;Laerm;67239;51.680;5.976;2023-02-21T08:32:43;66.49;43.67;80.38;;
66888;Laerm;67239;51.680;5.976;2023-02-21T08:35:15;62.07;41.19;77.54;;
66888;Laerm;67239;51.680;5.976;2023-02-21T08:37:48;65.55;41.97;82.37;;
66888;Laerm;67239;51.680;5.976;2023-02-21T08:40:19;67.17;45.57;78.58;;
66888;Laerm;67239;51.680;5.976;2023-02-21T08:42:52;63.86;42.73;79.41;;
66888;Laerm;67239;51.680;5.976;2023-02-21T08:45:22;62.11;42.10;79.94;;
66888;Laerm;67239;51.680;5.976;2023-02-21T08:47:50;67.41;41.70;81.17;;
66888;Laerm;67239;51.680;5.976;2023-02-21T08:50:20;67.32;44.54;82.26;;
66888;Laerm;67239;51.680;5.976;2023-02-21T08:52:49;67.31;43.85;80.55;;
66888;Laerm;67239;51.680;5.976;2023-02-21T08:55:17;64.85;41.84;79.71;;
66888;Laerm;67239;51.680;5.976;2023-02-21T08:57:51;65.68;42.29;80.66;;
66888;Laerm;67239;51.680;5.976;2023-02-21T09:00:22;67.77;43.50;81.86;;
66888;Laerm;67239;51.680;5.976;2023-02-21T09:02:50;67.92;42.11;80.91;;
66888;Laerm;67239;51.680;5.976;2023-02-21T09:05:24;67.37;42.61;79.63;;
66888;Laerm;67239;51.680;5.976;2023-02-21T09:07:57;67.17;39.68;81.71;;
66888;Laerm;67239;51.680;5.976;2023-02-21T09:10:28;68.00;40.61;82.19;;
66888;Laerm;67239;51.680;5.976;2023-02-21T09:12:56;67.73;43.58;82.53;;
66888;Laerm;67239;51.680;5.976;2023-02-21T09:15:23;66.70;42.93;80.81;;
66888;Laerm;67239;51.680;5.976;2023-02-21T09:17:51;65.54;41.03;81.67;;
66888;Laerm;67239;51.680;5.976;2023-02-21T09:20:23;67.43;41.32;80.88;;
66888;Laerm;67239;51.680;5.976;2023-02-21T09:22:51;68.01;45.61;80.51;;
66888;Laerm;67239;51.680;5.976;2023-02-21T09:25:22;62.48;41.79;79.03;;
66888;Laerm;67239;51.680;5.976;2023-02-21T09:27:51;67.87;42.52;83.26;;
66888;Laerm;67239;51.680;5.976;2023-02-21T09:30:23;69.14;43.91;82.92;;
66888;Laerm;67239;51.680;5.976;2023-02-21T09:32:53;63.66;41.06;79.17;;
66888;Laerm;67239;51.680;5.976;2023-02-21T09:35:21;69.82;40.76;82.87;;
66888;Laerm;67239;51.680;5.976;2023-02-21T09:37:48;68.11;43.59;81.18;;
66888;Laerm;67239;51.680;5.976;2023-02-21T09:43:20;66.30;40.86;82.11;;
66888;Laerm;67239;51.680;5.976;2023-02-21T09:45:53;69.74;46.99;84.34;;
66888;Laerm;67239;51.680;5.976;2023-02-21T09:48:23;70.08;50.45;80.88;;
66888;Laerm;67239;51.680;5.976;2023-02-21T09:50:58;66.90;45.76;80.86;;
66888;Laerm;67239;51.680;5.976;2023-02-21T09:53:41;64.84;41.29;77.96;;
66888;Laerm;67239;51.680;5.976;2023-02-21T09:56:32;69.03;45.41;81.46;;
66888;Laerm;67239;51.680;5.976;2023-02-21T09:59:00;68.24;42.98;83.03;;
66888;Laerm;67239;51.680;5.976;2023-02-21T10:01:49;65.96;42.34;84.32;;
66888;Laerm;67239;51.680;5.976;2023-02-21T10:08:11;68.38;42.09;83.48;;
66888;Laerm;67239;51.680;5.976;2023-02-21T10:10:53;69.48;47.46;81.43;;
66888;Laerm;67239;51.680;5.976;2023-02-21T10:13:45;67.78;42.79;84.85;;
66888;Laerm;67239;51.680;5.976;2023-02-21T10:16:32;69.28;41.64;85.53;;
66888;Laerm;67239;51.680;5.976;2023-02-21T10:19:20;69.66;43.33;82.47;;
66888;Laerm;67239;51.680;5.976;2023-02-21T10:21:48;64.45;42.01;78.49;;
66888;Laerm;67239;51.680;5.976;2023-02-21T10:24:26;71.15;48.86;84.66;;
66888;Laerm;67239;51.680;5.976;2023-02-21T10:32:07;67.42;47.17;81.09;;
66888;Laerm;67239;51.680;5.976;2023-02-21T10:34:34;66.51;43.11;79.54;;
66888;Laerm;67239;51.680;5.976;2023-02-21T10:37:24;64.81;42.19;83.00;;
66888;Laerm;67239;51.680;5.976;2023-02-21T10:40:03;68.29;43.30;80.20;;
66888;Laerm;67239;51.680;5.976;2023-02-21T10:42:53;68.71;49.00;79.58;;
66888;Laerm;67239;51.680;5.976;2023-02-21T10:45:32;66.68;41.51;79.03;;
66888;Laerm;67239;51.680;5.976;2023-02-21T10:48:08;69.67;47.12;81.62;;
66888;Laerm;67239;51.680;5.976;2023-02-21T10:53:40;68.82;42.63;83.00;;
66888;Laerm;67239;51.680;5.976;2023-02-21T10:59:03;71.47;49.33;85.19;;
66888;Laerm;67239;51.680;5.976;2023-02-21T11:01:37;66.77;42.78;77.54;;
66888;Laerm;67239;51.680;5.976;2023-02-21T11:04:26;68.84;47.24;83.95;;
66888;Laerm;67239;51.680;5.976;2023-02-21T11:07:06;64.86;42.58;78.11;;
66888;Laerm;67239;51.680;5.976;2023-02-21T11:09:45;67.22;42.30;79.66;;
66888;Laerm;67239;51.680;5.976;2023-02-21T11:17:24;68.92;45.47;86.21;;
66888;Laerm;67239;51.680;5.976;2023-02-21T11:22:24;70.58;48.22;84.60;;
66888;Laerm;67239;51.680;5.976;2023-02-21T11:25:05;67.85;43.25;80.90;;
66888;Laerm;67239;51.680;5.976;2023-02-21T11:27:35;68.30;43.45;83.14;;
66888;Laerm;67239;51.680;5.976;2023-02-21T11:30:19;67.69;44.30;82.33;;
66888;Laerm;67239;51.680;5.976;2023-02-21T11:32:53;66.56;43.32;80.23;;
66888;Laerm;67239;51.680;5.976;2023-02-21T11:35:34;70.38;45.42;82.85;;
66888;Laerm;67239;51.680;5.976;2023-02-21T11:38:34;68.60;43.22;80.44;;
66888;Laerm;67239;51.680;5.976;2023-02-21T11:43:54;68.26;41.44;80.69;;
66888;Laerm;67239;51.680;5.976;2023-02-21T11:46:45;68.11;45.66;82.69;;
66888;Laerm;67239;51.680;5.976;2023-02-21T11:51:49;67.92;40.55;80.32;;
66888;Laerm;67239;51.680;5.976;2023-02-21T11:54:27;66.13;41.11;81.30;;
66888;Laerm;67239;51.680;5.976;2023-02-21T11:57:13;65.72;41.15;77.66;;
66888;Laerm;67239;51.680;5.976;2023-02-21T12:00:08;68.81;41.52;82.19;;
66888;Laerm;67239;51.680;5.976;2023-02-21T12:03:09;70.02;43.66;82.52;;
66888;Laerm;67239;51.680;5.976;2023-02-21T12:05:52;68.58;45.91;80.21;;
66888;Laerm;67239;51.680;5.976;2023-02-21T12:08:55;68.65;40.31;80.28;;
66888;Laerm;67239;51.680;5.976;2023-02-21T12:11:36;69.02;40.21;81.92;;
66888;Laerm;67239;51.680;5.976;2023-02-21T12:32:23;67.96;43.57;80.48;;
66888;Laerm;67239;51.680;5.976;2023-02-21T12:41:29;68.23;41.15;81.56;;
66888;Laerm;67239;51.680;5.976;2023-02-21T12:44:19;69.37;40.94;90.73;;
66888;Laerm;67239;51.680;5.976;2023-02-21T12:47:03;69.64;46.65;79.59;;
66888;Laerm;67239;51.680;5.976;2023-02-21T12:50:05;68.63;42.22;80.59;;
66888;Laerm;67239;51.680;5.976;2023-02-21T12:55:25;66.27;41.89;78.96;;
66888;Laerm;67239;51.680;5.976;2023-02-21T12:58:05;68.06;42.21;81.98;;
66888;Laerm;67239;51.680;5.976;2023-02-21T13:06:42;69.95;46.08;84.64;;
66888;Laerm;67239;51.680;5.976;2023-02-21T13:14:53;64.02;43.90;83.77;;
66888;Laerm;67239;51.680;5.976;2023-02-21T13:17:25;64.95;45.01;79.62;;
66888;Laerm;67239;51.680;5.976;2023-02-21T13:20:09;70.31;49.06;80.91;;
66888;Laerm;67239;51.680;5.976;2023-02-21T13:28:52;67.72;45.52;83.39;;
66888;Laerm;67239;51.680;5.976;2023-02-21T13:31:27;59.88;45.00;72.73;;
66888;Laerm;67239;51.680;5.976;2023-02-21T13:34:07;68.90;45.29;80.25;;
66888;Laerm;67239;51.680;5.976;2023-02-21T13:41:39;68.93;49.34;79.83;;
66888;Laerm;67239;51.680;5.976;2023-02-21T13:44:16;67.60;44.65;80.08;;
66888;Laerm;67239;51.680;5.976;2023-02-21T14:03:00;71.02;50.35;84.85;;
66888;Laerm;67239;51.680;5.976;2023-02-21T14:08:46;68.43;44.83;85.29;;
66888;Laerm;67239;51.680;5.976;2023-02-21T14:11:23;70.07;45.46;80.20;;
66888;Laerm;67239;51.680;5.976;2023-02-21T14:14:03;64.73;45.72;81.43;;
66888;Laerm;67239;51.680;5.976;2023-02-21T14:19:41;68.66;47.08;83.13;;
66888;Laerm;67239;51.680;5.976;2023-02-21T14:22:20;69.53;45.59;80.92;;
66888;Laerm;67239;51.680;5.976;2023-02-21T14:25:06;66.57;40.40;80.87;;
66888;Laerm;67239;51.680;5.976;2023-02-21T14:27:37;68.49;43.71;85.96;;
66888;Laerm;67239;51.680;5.976;2023-02-21T14:32:48;67.77;41.22;83.65;;
66888;Laerm;67239;51.680;5.976;2023-02-21T14:35:55;65.48;39.19;78.88;;
66888;Laerm;67239;51.680;5.976;2023-02-21T14:38:28;69.22;42.34;80.45;;
66888;Laerm;67239;51.680;5.976;2023-02-21T14:44:36;68.23;40.72;82.84;;
66888;Laerm;67239;51.680;5.976;2023-02-21T14:51:23;65.58;40.20;79.45;;
66888;Laerm;67239;51.680;5.976;2023-02-21T15:00:10;66.44;46.01;79.68;;
66888;Laerm;67239;51.680;5.976;2023-02-21T15:03:11;67.26;42.80;81.19;;
66888;Laerm;67239;51.680;5.976;2023-02-21T15:05:59;69.91;46.65;83.48;;
66888;Laerm;67239;51.680;5.976;2023-02-21T15:08:46;67.17;44.23;79.16;;
66888;Laerm;67239;51.680;5.976;2023-02-21T15:11:24;67.59;46.72;80.82;;
66888;Laerm;67239;51.680;5.976;2023-02-21T15:14:24;67.86;45.69;80.20;;
66888;Laerm;67239;51.680;5.976;2023-02-21T15:17:09;67.72;47.87;81.99;;
66888;Laerm;67239;51.680;5.976;2023-02-21T15:19:38;67.24;45.58;79.18;;
66888;Laerm;67239;51.680;5.976;2023-02-21T15:22:26;70.08;49.84;83.41;;
66888;Laerm;67239;51.680;5.976;2023-02-21T15:25:15;67.46;47.70;81.91;;
66888;Laerm;67239;51.680;5.976;2023-02-21T15:30:24;66.46;44.97;81.06;;
66888;Laerm;67239;51.680;5.976;2023-02-21T15:35:39;70.59;50.38;83.97;;
66888;Laerm;67239;51.680;5.976;2023-02-21T15:38:21;68.97;48.61;81.03;;
66888;Laerm;67239;51.680;5.976;2023-02-21T15:40:56;67.25;40.94;82.18;;
66888;Laerm;67239;51.680;5.976;2023-02-21T15:46:02;68.96;44.35;80.40;;
66888;Laerm;67239;51.680;5.976;2023-02-21T15:48:31;66.60;45.00;77.64;;
66888;Laerm;67239;51.680;5.976;2023-02-21T15:51:03;68.66;43.23;80.00;;
66888;Laerm;67239;51.680;5.976;2023-02-21T15:53:32;66.95;42.66;81.03;;
66888;Laerm;67239;51.680;5.976;2023-02-21T15:56:35;68.73;46.78;79.69;;
66888;Laerm;67239;51.680;5.976;2023-02-21T15:59:18;66.26;43.29;80.73;;
66888;Laerm;67239;51.680;5.976;2023-02-21T16:02:22;68.03;46.45;80.68;;
66888;Laerm;67239;51.680;5.976;2023-02-21T16:04:51;67.64;42.70;78.44;;
66888;Laerm;67239;51.680;5.976;2023-02-21T16:07:34;70.63;51.08;84.81;;
66888;Laerm;67239;51.680;5.976;2023-02-21T16:10:09;70.78;50.86;81.56;;
66888;Laerm;67239;51.680;5.976;2023-02-21T16:12:40;69.03;46.38;80.44;;
66888;Laerm;67239;51.680;5.976;2023-02-21T16:15:27;67.02;44.85;79.53;;
66888;Laerm;67239;51.680;5.976;2023-02-21T16:17:58;68.93;43.07;81.27;;
66888;Laerm;67239;51.680;5.976;2023-02-21T16:20:41;68.44;42.38;83.67;;
66888;Laerm;67239;51.680;5.976;2023-02-21T16:23:30;69.28;40.51;86.26;;
66888;Laerm;67239;51.680;5.976;2023-02-21T16:26:23;68.54;43.09;80.46;;
66888;Laerm;67239;51.680;5.976;2023-02-21T16:28:55;67.22;43.28;80.71;;
66888;Laerm;67239;51.680;5.976;2023-02-21T16:31:31;67.73;44.45;80.11;;
66888;Laerm;67239;51.680;5.976;2023-02-21T16:33:59;69.57;45.00;81.46;;
66888;Laerm;67239;51.680;5.976;2023-02-21T16:36:30;63.78;40.46;76.95;;
66888;Laerm;67239;51.680;5.976;2023-02-21T16:38:58;67.22;38.32;79.53;;
66888;Laerm;67239;51.680;5.976;2023-02-21T16:41:26;67.88;37.05;83.88;;
66888;Laerm;67239;51.680;5.976;2023-02-21T16:43:53;65.04;38.48;79.32;;
66888;Laerm;67239;51.680;5.976;2023-02-21T16:46:26;64.44;38.29;80.57;;
66888;Laerm;67239;51.680;5.976;2023-02-21T16:48:56;68.61;43.52;80.49;;
66888;Laerm;67239;51.680;5.976;2023-02-21T16:51:24;66.58;37.50;82.04;;
66888;Laerm;67239;51.680;5.976;2023-02-21T16:53:59;62.47;36.86;78.77;;
66888;Laerm;67239;51.680;5.976;2023-02-21T16:56:26;66.12;37.75;84.76;;
66888;Laerm;67239;51.680;5.976;2023-02-21T16:58:54;59.35;36.37;74.97;;
66888;Laerm;67239;51.680;5.976;2023-02-21T17:01:29;65.77;36.20;81.56;;
66888;Laerm;67239;51.680;5.976;2023-02-21T17:03:59;65.94;38.58;79.25;;
66888;Laerm;67239;51.680;5.976;2023-02-21T17:06:28;67.19;37.70;79.03;;
66888;Laerm;67239;51.680;5.976;2023-02-21T17:08:55;65.77;38.89;79.74;;
66888;Laerm;67239;51.680;5.976;2023-02-21T17:11:22;66.67;39.60;77.02;;
66888;Laerm;67239;51.680;5.976;2023-02-21T17:13:51;69.50;39.39;82.25;;